createdAt,value
2023-04-28T00:01:45.787Z,56.09
2023-04-28T00:04:13.212Z,55.99
2023-04-28T00:06:41.148Z,56.19
2023-04-28T00:09:11.156Z,56.10
2023-04-28T00:11:38.554Z,56.46
2023-04-28T00:14:05.967Z,55.81
2023-04-28T00:16:33.174Z,55.84
2023-04-28T00:19:00.314Z,56.53
2023-04-28T00:21:28.677Z,56.40
2023-04-28T00:23:56.044Z,56.35
2023-04-28T00:26:23.377Z,56.47
2023-04-28T00:28:50.655Z,55.88
2023-04-28T00:31:19.190Z,56.46
2023-04-28T00:33:46.307Z,56.26
2023-04-28T00:36:13.530Z,56.07
2023-04-28T00:38:40.676Z,55.96
2023-04-28T00:41:10.060Z,56.08
2023-04-28T00:43:49.639Z,56.35
2023-04-28T00:46:24.967Z,55.90
2023-04-28T00:48:52.652Z,55.84
2023-04-28T00:51:19.784Z,56.09
2023-04-28T00:53:47.114Z,55.88
2023-04-28T00:56:14.338Z,55.54
2023-04-28T00:58:41.995Z,55.54
2023-04-28T01:01:10.139Z,55.56
2023-04-28T01:03:40.561Z,55.63
2023-04-28T01:06:10.136Z,55.73
2023-04-28T01:08:38.559Z,55.91
2023-04-28T01:11:07.514Z,55.91
2023-04-28T01:13:34.672Z,55.03
2023-04-28T01:16:01.923Z,55.26
2023-04-28T01:18:29.423Z,56.04
2023-04-28T01:20:56.576Z,55.18
2023-04-28T01:23:23.601Z,56.14
2023-04-28T01:25:50.734Z,55.54
2023-04-28T01:28:20.072Z,54.40
2023-04-28T01:30:47.196Z,54.39
2023-04-28T01:33:14.247Z,55.22
2023-04-28T01:35:41.426Z,55.27
2023-04-28T01:38:08.677Z,55.32
2023-04-28T01:40:36.504Z,55.88
2023-04-28T01:43:04.343Z,56.03
2023-04-28T01:45:31.408Z,55.64
2023-04-28T01:47:58.540Z,55.99
2023-04-28T01:50:25.697Z,56.13
2023-04-28T01:52:52.769Z,56.09
2023-04-28T01:55:19.809Z,54.95
2023-04-28T01:57:46.909Z,55.26
2023-04-28T02:00:14.123Z,54.93
2023-04-28T02:02:42.028Z,54.43
2023-04-28T02:05:09.366Z,54.31
2023-04-28T02:07:36.677Z,54.82
2023-04-28T02:10:04.301Z,55.28
2023-04-28T02:12:31.752Z,54.60
2023-04-28T02:14:59.203Z,54.33
2023-04-28T02:17:26.552Z,54.08
2023-04-28T02:19:57.006Z,53.42
2023-04-28T02:22:24.810Z,53.50
2023-04-28T02:24:52.691Z,53.58
2023-04-28T02:27:21.601Z,53.85
2023-04-28T02:29:48.992Z,53.37
2023-04-28T02:32:16.136Z,52.90
2023-04-28T02:34:43.302Z,53.13
2023-04-28T02:37:10.328Z,52.89
2023-04-28T02:39:37.786Z,53.04
2023-04-28T02:42:05.499Z,52.66
2023-04-28T02:44:32.557Z,52.49
2023-04-28T02:47:00.712Z,52.72
2023-04-28T02:49:27.918Z,52.49
2023-04-28T02:51:55.032Z,52.43
2023-04-28T02:54:27.697Z,52.37
2023-04-28T02:56:55.974Z,52.24
2023-04-28T02:59:23.804Z,52.32
2023-04-28T03:01:51.931Z,52.36
2023-04-28T03:04:19.374Z,52.17
2023-04-28T03:06:46.899Z,51.83
2023-04-28T03:09:14.739Z,52.14
2023-04-28T03:11:41.847Z,52.25
2023-04-28T03:14:09.012Z,51.94
2023-04-28T03:16:36.341Z,51.96
2023-04-28T03:19:03.742Z,51.89
2023-04-28T03:21:30.811Z,52.05
2023-04-28T03:23:58.023Z,51.92
2023-04-28T03:26:25.144Z,52.01
2023-04-28T03:28:52.996Z,51.91
2023-04-28T03:31:20.083Z,51.72
2023-04-28T03:33:47.196Z,52.57
2023-04-28T03:36:14.237Z,51.85
2023-04-28T03:38:41.598Z,51.89
2023-04-28T03:41:08.678Z,52.08
2023-04-28T03:43:37.309Z,52.40
2023-04-28T03:46:04.880Z,51.91
2023-04-28T03:48:32.182Z,52.24
2023-04-28T03:50:59.332Z,52.12
2023-04-28T03:53:26.372Z,51.79
2023-04-28T03:55:53.436Z,51.75
2023-04-28T03:58:20.870Z,52.04
2023-04-28T04:00:47.975Z,51.86
2023-04-28T04:03:15.237Z,52.21
2023-04-28T04:05:42.512Z,51.85
2023-04-28T04:08:10.275Z,51.94
2023-04-28T04:10:37.800Z,52.00
2023-04-28T04:13:04.851Z,52.05
2023-04-28T04:15:31.993Z,52.53
2023-04-28T04:17:59.549Z,52.38
2023-04-28T04:20:26.627Z,52.21
2023-04-28T04:22:53.672Z,52.64
2023-04-28T04:25:22.773Z,52.51
2023-04-28T04:27:50.458Z,52.75
2023-04-28T04:30:17.603Z,52.55
2023-04-28T04:32:44.781Z,52.62
2023-04-28T04:35:11.843Z,52.83
2023-04-28T04:37:38.990Z,52.67
2023-04-28T04:40:07.690Z,53.08
2023-04-28T04:42:34.770Z,52.80
2023-04-28T04:45:01.799Z,53.14
2023-04-28T04:47:29.082Z,53.28
2023-04-28T04:49:56.584Z,53.50
2023-04-28T04:52:23.769Z,53.24
2023-04-28T04:54:50.976Z,53.89
2023-04-28T04:57:18.078Z,53.59
2023-04-28T04:59:45.975Z,53.63
2023-04-28T05:02:14.187Z,53.43
2023-04-28T05:04:41.537Z,53.24
2023-04-28T05:07:08.801Z,53.75
2023-04-28T05:09:36.014Z,53.45
2023-04-28T05:12:03.118Z,53.02
2023-04-28T05:14:30.449Z,52.98
2023-04-28T05:16:58.755Z,52.85
2023-04-28T05:19:25.900Z,53.02
2023-04-28T05:21:54.802Z,52.92
2023-04-28T05:24:23.800Z,52.98
2023-04-28T05:26:51.728Z,52.85
2023-04-28T05:29:18.765Z,53.00
2023-04-28T05:31:46.347Z,52.76
2023-04-28T05:34:13.730Z,52.96
2023-04-28T05:36:41.666Z,52.89
2023-04-28T05:39:08.747Z,52.87
2023-04-28T05:41:36.787Z,52.90
2023-04-28T05:44:03.893Z,52.75
2023-04-28T05:46:31.458Z,52.83
2023-04-28T05:48:58.792Z,52.54
2023-04-28T05:51:27.142Z,52.70
2023-04-28T05:53:54.435Z,52.79
2023-04-28T05:56:21.525Z,52.73
2023-04-28T05:58:50.464Z,52.50
2023-04-28T06:01:17.979Z,52.71
2023-04-28T06:03:45.621Z,52.70
2023-04-28T06:06:13.086Z,52.68
2023-04-28T06:08:41.390Z,52.58
2023-04-28T06:11:08.477Z,52.64
2023-04-28T06:13:35.737Z,52.83
2023-04-28T06:16:03.425Z,52.80
2023-04-28T06:18:32.803Z,52.53
2023-04-28T06:21:01.370Z,52.33
2023-04-28T06:23:28.497Z,52.44
2023-04-28T06:25:55.779Z,52.50
2023-04-28T06:28:22.823Z,52.15
2023-04-28T06:30:50.003Z,52.21
2023-04-28T06:33:17.101Z,52.14
2023-04-28T06:35:44.445Z,52.23
2023-04-28T06:38:11.614Z,52.06
2023-04-28T06:40:40.845Z,51.98
2023-04-28T06:43:07.910Z,52.01
2023-04-28T06:45:35.016Z,52.06
2023-04-28T06:48:02.338Z,51.84
2023-04-28T06:50:29.425Z,51.72
2023-04-28T06:52:57.023Z,51.80
2023-04-28T06:55:24.144Z,51.96
2023-04-28T06:57:51.303Z,51.62
2023-04-28T07:00:18.557Z,51.40
2023-04-28T07:02:45.881Z,51.41
2023-04-28T07:05:15.475Z,50.92
2023-04-28T07:07:43.539Z,50.99
2023-04-28T07:10:11.346Z,51.18
2023-04-28T07:12:38.409Z,50.64
2023-04-28T07:15:06.554Z,50.39
2023-04-28T07:17:33.711Z,50.87
2023-04-28T07:20:01.136Z,50.80
2023-04-28T07:22:28.229Z,50.63
2023-04-28T07:24:55.462Z,50.50
2023-04-28T07:27:23.269Z,50.18
2023-04-28T07:29:51.937Z,50.51
2023-04-28T07:32:19.307Z,50.03
2023-04-28T07:34:46.738Z,49.91
2023-04-28T07:37:13.861Z,50.33
2023-04-28T07:39:41.764Z,50.34
2023-04-28T07:42:09.596Z,49.93
2023-04-28T07:44:36.696Z,50.05
2023-04-28T07:47:03.907Z,50.16
2023-04-28T07:49:31.656Z,49.50
2023-04-28T07:51:58.719Z,50.02
2023-04-28T07:54:25.794Z,49.76
2023-04-28T07:56:53.036Z,49.72
2023-04-28T07:59:20.451Z,49.21
2023-04-28T08:01:47.645Z,49.38
2023-04-28T08:04:15.163Z,49.43
2023-04-28T08:06:42.575Z,49.59
2023-04-28T08:09:09.864Z,49.54
2023-04-28T08:11:36.998Z,49.43
2023-04-28T08:14:04.210Z,49.53
2023-04-28T08:16:31.679Z,49.13
2023-04-28T08:18:59.567Z,49.47
2023-04-28T08:21:27.062Z,49.57
2023-04-28T08:23:54.318Z,49.46
2023-04-28T08:26:21.636Z,49.73
2023-04-28T08:28:48.685Z,49.45
2023-04-28T08:31:15.779Z,49.55
2023-04-28T08:33:48.635Z,49.82
2023-04-28T08:36:15.761Z,50.64
2023-04-28T08:38:43.100Z,50.91
2023-04-28T08:41:10.942Z,50.99
2023-04-28T08:43:40.479Z,50.77
2023-04-28T08:46:08.493Z,50.53
2023-04-28T08:48:47.563Z,51.24
2023-04-28T08:51:16.911Z,50.77
2023-04-28T08:54:14.853Z,50.25
2023-04-28T08:56:38.976Z,49.79
2023-04-28T08:59:06.255Z,49.83
2023-04-28T09:01:33.533Z,49.49
2023-04-28T09:04:04.242Z,49.97
2023-04-28T09:06:36.320Z,49.68
2023-04-28T09:09:22.664Z,49.88
2023-04-28T09:11:59.933Z,49.51
2023-04-28T09:14:33.068Z,50.20
2023-04-28T09:17:00.358Z,50.02
2023-04-28T09:19:34.447Z,50.12
2023-04-28T09:22:05.700Z,50.77
2023-04-28T09:24:42.895Z,52.10
2023-04-28T09:27:11.789Z,52.80
2023-04-28T09:29:39.373Z,52.90
2023-04-28T09:32:20.910Z,54.00
2023-04-28T09:34:50.201Z,55.40
2023-04-28T09:37:36.241Z,56.32
2023-04-28T09:40:08.767Z,54.87
2023-04-28T09:42:38.005Z,57.18
2023-04-28T09:45:07.352Z,55.80
2023-04-28T09:47:37.376Z,56.28
2023-04-28T09:50:06.677Z,56.59
2023-04-28T09:52:37.322Z,56.08
2023-04-28T09:55:08.824Z,57.42
2023-04-28T09:57:36.919Z,57.10
2023-04-28T10:00:09.140Z,58.55
2023-04-28T10:05:12.994Z,58.20
2023-04-28T10:07:40.705Z,59.81
2023-04-28T10:10:08.197Z,60.27
2023-04-28T10:12:38.601Z,60.42
2023-04-28T10:15:08.367Z,61.36
2023-04-28T10:17:36.748Z,61.63
2023-04-28T10:20:05.290Z,62.17
2023-04-28T10:22:54.291Z,63.13
2023-04-28T10:25:30.127Z,62.55
2023-04-28T10:27:57.857Z,62.57
2023-04-28T10:30:29.278Z,63.48
2023-04-28T10:33:09.390Z,64.47
2023-04-28T10:35:40.764Z,64.31
2023-04-28T10:38:12.804Z,64.47
2023-04-28T10:40:41.489Z,65.29
2023-04-28T10:43:29.125Z,67.42
2023-04-28T10:46:01.403Z,68.52
2023-04-28T10:48:34.991Z,66.45
2023-04-28T10:51:09.668Z,67.91
2023-04-28T10:53:42.737Z,68.64
2023-04-28T10:56:21.636Z,69.37
2023-04-28T10:58:50.676Z,68.75
2023-04-28T11:01:27.141Z,69.12
2023-04-28T11:04:20.842Z,69.45
2023-04-28T11:07:11.453Z,69.79
2023-04-28T11:09:38.437Z,70.43
2023-04-28T11:12:06.758Z,71.00
2023-04-28T11:14:35.222Z,71.31
2023-04-28T11:17:04.249Z,71.79
2023-04-28T11:19:43.963Z,71.57
2023-04-28T11:22:19.407Z,72.01
2023-04-28T11:25:03.029Z,71.53
2023-04-28T11:27:32.858Z,71.09
2023-04-28T11:30:01.454Z,70.79
2023-04-28T11:32:35.643Z,70.28
2023-04-28T11:35:04.742Z,71.57
2023-04-28T11:37:32.024Z,71.40
2023-04-28T11:39:59.119Z,72.63
2023-04-28T11:42:28.161Z,73.02
2023-04-28T11:44:55.384Z,72.99
2023-04-28T11:47:33.505Z,72.77
2023-04-28T11:50:01.499Z,72.66
2023-04-28T11:52:28.857Z,72.54
2023-04-28T11:54:58.051Z,72.72
2023-04-28T11:57:25.468Z,72.49
2023-04-28T11:59:52.658Z,72.75
2023-04-28T12:02:28.418Z,72.73
2023-04-28T12:04:55.663Z,71.84
2023-04-28T12:07:23.046Z,71.89
2023-04-28T12:10:11.965Z,71.80
2023-04-28T12:12:49.841Z,72.73
2023-04-28T12:15:20.704Z,72.02
2023-04-28T12:17:48.794Z,70.81
2023-04-28T12:20:38.767Z,72.86
2023-04-28T12:23:07.390Z,72.55
2023-04-28T12:25:43.830Z,72.19
2023-04-28T12:28:11.222Z,72.51
2023-04-28T12:30:39.112Z,73.08
2023-04-28T12:33:06.322Z,72.97
2023-04-28T12:35:33.696Z,71.95
2023-04-28T12:38:00.856Z,71.48
2023-04-28T12:40:27.976Z,71.81
2023-04-28T12:42:55.086Z,70.60
2023-04-28T12:45:22.346Z,70.45
2023-04-28T12:47:49.761Z,68.75
2023-04-28T12:50:16.951Z,69.82
2023-04-28T12:52:44.102Z,70.07
2023-04-28T12:55:11.176Z,69.68
2023-04-28T12:57:39.673Z,69.18
2023-04-28T13:00:08.245Z,69.09
2023-04-28T13:02:35.855Z,68.44
2023-04-28T13:05:03.494Z,68.18
2023-04-28T13:07:30.874Z,67.62
2023-04-28T13:09:58.453Z,67.62
2023-04-28T13:12:25.947Z,66.72
2023-04-28T13:14:53.040Z,66.50
2023-04-28T13:17:20.165Z,67.04
2023-04-28T13:19:47.741Z,66.27
2023-04-28T13:22:15.783Z,66.89
2023-04-28T13:24:43.125Z,66.90
2023-04-28T13:27:10.558Z,67.11
2023-04-28T13:29:37.844Z,66.64
2023-04-28T13:32:05.886Z,66.38
2023-04-28T13:34:33.300Z,66.54
2023-04-28T13:37:00.500Z,66.03
2023-04-28T13:39:27.553Z,67.15
2023-04-28T13:41:54.636Z,66.81
2023-04-28T13:44:22.092Z,66.66
2023-04-28T13:46:49.838Z,66.31
2023-04-28T13:49:17.047Z,66.35
2023-04-28T13:51:45.858Z,66.32
2023-04-28T13:54:12.993Z,66.88
2023-04-28T13:56:40.110Z,66.32
2023-04-28T13:59:10.279Z,66.94
2023-04-28T14:01:37.380Z,66.56
2023-04-28T14:04:06.285Z,66.52
2023-04-28T14:06:34.760Z,66.48
2023-04-28T14:09:02.840Z,66.39
2023-04-28T14:11:29.919Z,65.81
2023-04-28T14:13:57.422Z,66.50
2023-04-28T14:16:24.774Z,66.32
2023-04-28T14:18:51.889Z,66.40
2023-04-28T14:21:18.954Z,66.46
2023-04-28T14:23:46.024Z,66.46
2023-04-28T14:26:13.118Z,66.21
2023-04-28T14:28:40.197Z,66.36
2023-04-28T14:31:09.059Z,66.41
2023-04-28T14:33:36.849Z,66.13
2023-04-28T14:36:04.072Z,65.94
2023-04-28T14:38:31.238Z,66.33
2023-04-28T14:40:58.390Z,66.22
2023-04-28T14:43:25.960Z,65.93
2023-04-28T14:45:53.579Z,65.91
2023-04-28T14:48:20.850Z,65.86
2023-04-28T14:50:48.253Z,66.23
2023-04-28T14:53:15.628Z,65.59
2023-04-28T14:55:43.476Z,65.48
2023-04-28T14:58:10.742Z,65.93
2023-04-28T15:00:38.013Z,65.60
2023-04-28T15:03:05.401Z,65.36
2023-04-28T15:05:32.886Z,65.17
2023-04-28T15:07:59.953Z,65.42
2023-04-28T15:10:33.231Z,64.89
2023-04-28T15:13:00.324Z,65.22
2023-04-28T15:15:27.511Z,65.17
2023-04-28T15:18:00.388Z,65.50
2023-04-28T15:20:32.780Z,65.11
2023-04-28T15:23:00.026Z,65.50
2023-04-28T15:25:27.304Z,65.32
2023-04-28T15:27:54.559Z,65.81
2023-04-28T15:30:21.606Z,66.09
2023-04-28T15:32:51.800Z,65.75
2023-04-28T15:35:18.884Z,66.29
2023-04-28T15:37:52.027Z,66.27
2023-04-28T15:40:19.738Z,66.29
2023-04-28T15:42:51.532Z,66.35
2023-04-28T15:45:22.371Z,66.40
2023-04-28T15:47:50.690Z,66.04
2023-04-28T15:50:20.203Z,66.19
2023-04-28T15:52:49.553Z,66.36
2023-04-28T15:55:18.411Z,66.43
2023-04-28T15:57:46.129Z,66.44
2023-04-28T16:00:17.232Z,67.19
2023-04-28T16:02:45.010Z,66.66
2023-04-28T16:05:12.623Z,66.79
2023-04-28T16:07:44.675Z,67.15
2023-04-28T16:10:13.232Z,66.94
2023-04-28T16:12:40.709Z,66.91
2023-04-28T16:15:09.879Z,67.24
2023-04-28T16:17:38.631Z,67.11
2023-04-28T16:20:07.603Z,67.08
2023-04-28T16:22:35.493Z,67.21
2023-04-28T16:25:04.097Z,67.68
2023-04-28T16:27:31.906Z,67.43
2023-04-28T16:29:59.195Z,67.80
2023-04-28T16:32:26.421Z,67.85
2023-04-28T16:34:54.093Z,67.90
2023-04-28T16:37:21.329Z,67.46
2023-04-28T16:39:48.961Z,67.41
2023-04-28T16:42:16.734Z,67.44
2023-04-28T16:44:44.114Z,67.32
2023-04-28T16:47:11.416Z,67.48
2023-04-28T16:49:38.480Z,67.66
2023-04-28T16:52:05.669Z,67.47
2023-04-28T16:54:33.373Z,68.06
2023-04-28T16:57:02.420Z,68.20
2023-04-28T16:59:29.916Z,68.88
2023-04-28T17:01:57.664Z,68.72
2023-04-28T17:04:25.592Z,69.02
2023-04-28T17:06:53.290Z,69.20
2023-04-28T17:09:21.085Z,68.89
2023-04-28T17:11:49.251Z,68.93
2023-04-28T17:14:16.943Z,68.58
2023-04-28T17:16:44.150Z,68.54
2023-04-28T17:19:11.522Z,68.65
2023-04-28T17:21:38.851Z,68.63
2023-04-28T17:24:06.030Z,68.63
2023-04-28T17:26:33.137Z,68.63
2023-04-28T17:29:02.375Z,68.97
2023-04-28T17:31:29.995Z,68.72
2023-04-28T17:33:58.180Z,68.80
2023-04-28T17:36:27.010Z,69.30
2023-04-28T17:38:57.116Z,69.33
2023-04-28T17:41:24.227Z,68.90
2023-04-28T17:43:54.297Z,69.01
2023-04-28T17:46:21.857Z,68.80
2023-04-28T17:48:49.497Z,68.95
2023-04-28T17:51:16.731Z,69.20
2023-04-28T17:53:46.225Z,69.18
2023-04-28T17:56:13.318Z,69.47
2023-04-28T17:58:40.715Z,69.40
2023-04-28T18:01:08.521Z,69.45
2023-04-28T18:03:37.837Z,69.88
2023-04-28T18:06:07.429Z,69.30
2023-04-28T18:08:37.831Z,69.65
2023-04-28T18:11:05.114Z,69.60
2023-04-28T18:13:33.365Z,69.64
2023-04-28T18:16:01.384Z,69.89
2023-04-28T18:18:30.548Z,69.80
2023-04-28T18:20:59.713Z,69.68
2023-04-28T18:23:27.006Z,70.11
2023-04-28T18:25:54.100Z,69.93
2023-04-28T18:28:21.213Z,70.25
2023-04-28T18:30:48.760Z,69.93
2023-04-28T18:33:19.508Z,70.24
2023-04-28T18:35:48.486Z,70.05
2023-04-28T18:38:15.609Z,69.91
2023-04-28T18:40:42.660Z,69.92
2023-04-28T18:43:13.218Z,70.01
2023-04-28T18:45:44.267Z,69.99
2023-04-28T18:48:12.095Z,70.04
2023-04-28T18:50:39.532Z,70.22
2023-04-28T18:53:08.749Z,69.96
2023-04-28T18:55:35.890Z,69.76
2023-04-28T18:58:04.042Z,69.65
2023-04-28T19:00:32.625Z,70.01
2023-04-28T19:03:00.145Z,69.79
2023-04-28T19:05:27.543Z,69.87
2023-04-28T19:07:54.676Z,70.14
2023-04-28T19:10:21.980Z,70.13
2023-04-28T19:12:49.068Z,70.02
2023-04-28T19:15:17.132Z,70.60
2023-04-28T19:17:44.511Z,70.95
2023-04-28T19:20:13.360Z,70.96
2023-04-28T19:22:44.352Z,70.61
2023-04-28T19:25:11.645Z,70.93
2023-04-28T19:27:40.779Z,71.14
2023-04-28T19:30:09.799Z,71.29
2023-04-28T19:32:40.490Z,71.48
2023-04-28T19:35:08.684Z,71.59
2023-04-28T19:37:36.429Z,71.21
2023-04-28T19:40:07.371Z,71.35
2023-04-28T19:42:38.535Z,71.27
2023-04-28T19:45:07.627Z,71.56
2023-04-28T19:47:37.966Z,71.37
2023-04-28T19:50:05.544Z,71.04
2023-04-28T19:52:33.008Z,71.47
2023-04-28T19:55:00.771Z,71.40
2023-04-28T19:57:28.049Z,71.51
2023-04-28T19:59:55.166Z,71.42
2023-04-28T20:02:22.368Z,71.55
2023-04-28T20:04:49.750Z,71.91
2023-04-28T20:07:20.023Z,71.76
2023-04-28T20:09:47.069Z,71.67
2023-04-28T20:12:15.704Z,71.89
2023-04-28T20:14:43.384Z,72.19
2023-04-28T20:17:11.491Z,72.75
2023-04-28T20:19:38.816Z,72.67
2023-04-28T20:22:08.451Z,72.87
2023-04-28T20:24:36.432Z,72.81
2023-04-28T20:27:04.142Z,72.45
2023-04-28T20:29:34.332Z,72.37
2023-04-28T20:32:02.445Z,72.28
2023-04-28T20:34:32.754Z,72.29
2023-04-28T20:37:03.317Z,72.69
2023-04-28T20:39:30.460Z,72.58
2023-04-28T20:41:58.793Z,72.19
2023-04-28T20:44:25.846Z,72.56
2023-04-28T20:46:53.573Z,72.91
2023-04-28T20:49:20.775Z,73.12
2023-04-28T20:51:47.916Z,73.14
2023-04-28T20:54:15.173Z,73.46
2023-04-28T20:56:42.933Z,73.43
2023-04-28T20:59:10.095Z,73.01
2023-04-28T21:01:37.242Z,73.11
2023-04-28T21:04:04.514Z,72.81
2023-04-28T21:06:31.642Z,73.12
2023-04-28T21:08:58.731Z,73.24
2023-04-28T21:11:25.871Z,72.68
2023-04-28T21:13:52.936Z,73.22
2023-04-28T21:16:21.603Z,73.50
2023-04-28T21:18:49.772Z,73.46
2023-04-28T21:21:17.245Z,73.19
2023-04-28T21:23:45.772Z,73.83
2023-04-28T21:26:13.643Z,73.31
2023-04-28T21:28:41.538Z,73.72
2023-04-28T21:31:08.676Z,73.77
2023-04-28T21:33:35.823Z,73.59
2023-04-28T21:36:09.436Z,72.97
2023-04-28T21:38:37.194Z,74.02
2023-04-28T21:41:04.776Z,73.68
2023-04-28T21:43:31.816Z,74.28
2023-04-28T21:45:58.958Z,73.87
2023-04-28T21:48:26.050Z,74.31
2023-04-28T21:50:53.137Z,74.44
2023-04-28T21:53:20.620Z,74.64
2023-04-28T21:55:47.907Z,74.66
2023-04-28T21:58:15.156Z,74.74
2023-04-28T22:00:44.319Z,74.42
2023-04-28T22:03:12.312Z,74.79
2023-04-28T22:05:40.390Z,74.05
2023-04-28T22:08:07.730Z,74.44
2023-04-28T22:10:35.371Z,73.97
2023-04-28T22:13:03.074Z,74.95
2023-04-28T22:15:31.010Z,75.40
2023-04-28T22:17:58.227Z,75.66
2023-04-28T22:20:25.504Z,75.67
2023-04-28T22:22:52.678Z,75.28
2023-04-28T22:25:20.247Z,76.64
2023-04-28T22:27:47.541Z,76.23
2023-04-28T22:30:15.585Z,75.64
2023-04-28T22:32:47.154Z,76.31
2023-04-28T22:35:16.940Z,76.23
2023-04-28T22:37:44.465Z,76.07
2023-04-28T22:40:11.865Z,75.90
2023-04-28T22:42:40.778Z,76.97
2023-04-28T22:45:08.418Z,77.37
2023-04-28T22:47:36.235Z,77.25
2023-04-28T22:50:08.615Z,77.06
2023-04-28T22:52:35.709Z,77.07
2023-04-28T22:55:02.948Z,76.69
2023-04-28T22:57:30.054Z,76.39
2023-04-28T22:59:57.217Z,77.12
2023-04-28T23:02:25.313Z,77.15
2023-04-28T23:04:52.660Z,77.40
2023-04-28T23:07:19.881Z,77.63
2023-04-28T23:09:47.029Z,78.12
2023-04-28T23:12:14.068Z,78.16
2023-04-28T23:14:41.145Z,78.06
2023-04-28T23:17:08.382Z,78.62
2023-04-28T23:19:39.040Z,79.09
2023-04-28T23:22:09.380Z,79.00
2023-04-28T23:24:37.966Z,78.62
2023-04-28T23:27:05.531Z,78.33
2023-04-28T23:29:33.252Z,78.96
2023-04-28T23:32:00.401Z,78.74
2023-04-28T23:34:27.673Z,79.04
2023-04-28T23:36:54.721Z,78.99
2023-04-28T23:39:21.865Z,78.70
2023-04-28T23:41:48.962Z,78.39
2023-04-28T23:44:16.044Z,79.06
2023-04-28T23:46:43.563Z,78.88
2023-04-28T23:49:10.675Z,79.35
2023-04-28T23:51:37.788Z,80.00
2023-04-28T23:54:04.873Z,80.80
2023-04-28T23:56:31.976Z,80.92
2023-04-28T23:58:59.055Z,81.54
